The Cedars, Virginia
Current Conditions -  °F | °C
As of 10:55 AM on Friday 21 Nov 2014 (Local Time) from KMKJ Reporting Station
Clear Clear  
Wind Chill: 23°   Ceiling: Unl
Heat Index: 32°   Visibility: 10mi
Dew Point:   Wind: 13mph
Humidity: 32%   Direction: 280°W
Pressure: 30.4"   Gusts: 21mph
Location:  36.8339°N, 81.5195°W
Report Text: KMKJ 211555Z AUTO 28011G18KT 10SM CLR 00/M15 A3040 RMK AO2 T00001149
Loading
Personal Weather Stations






























Interactive Weather Map New forecast layout! Learn more

10-Day Weather Forecast

Advertisements
Track Severe Weather on mobile